sensor_id;sensor_type;location;lat;lon;timestamp;P1;durP1;ratioP1;P2;durP2;ratioP2
28246;SDS011;66191;53.178;22.058;2023-09-19T00:00:21;19.45;;;12.90;;
28246;SDS011;66191;53.178;22.058;2023-09-19T00:03:15;19.60;;;13.32;;
28246;SDS011;66191;53.178;22.058;2023-09-19T00:05:50;22.17;;;13.82;;
28246;SDS011;66191;53.178;22.058;2023-09-19T00:08:23;19.92;;;13.77;;
28246;SDS011;66191;53.178;22.058;2023-09-19T00:10:56;17.55;;;12.68;;
28246;SDS011;66191;53.178;22.058;2023-09-19T00:13:36;19.70;;;14.35;;
28246;SDS011;66191;53.178;22.058;2023-09-19T00:16:10;19.30;;;13.50;;
28246;SDS011;66191;53.178;22.058;2023-09-19T00:18:44;25.27;;;15.93;;
28246;SDS011;66191;53.178;22.058;2023-09-19T00:21:17;19.05;;;13.82;;
28246;SDS011;66191;53.178;22.058;2023-09-19T00:23:48;21.80;;;14.27;;
28246;SDS011;66191;53.178;22.058;2023-09-19T00:26:20;19.17;;;14.13;;
28246;SDS011;66191;53.178;22.058;2023-09-19T00:28:56;19.00;;;13.55;;
28246;SDS011;66191;53.178;22.058;2023-09-19T00:31:36;18.60;;;14.48;;
28246;SDS011;66191;53.178;22.058;2023-09-19T00:34:15;21.70;;;15.77;;
28246;SDS011;66191;53.178;22.058;2023-09-19T00:36:47;20.20;;;14.75;;
28246;SDS011;66191;53.178;22.058;2023-09-19T00:39:27;18.63;;;14.50;;
28246;SDS011;66191;53.178;22.058;2023-09-19T00:42:02;21.08;;;15.20;;
28246;SDS011;66191;53.178;22.058;2023-09-19T00:44:38;17.67;;;13.85;;
28246;SDS011;66191;53.178;22.058;2023-09-19T00:47:10;22.10;;;14.52;;
28246;SDS011;66191;53.178;22.058;2023-09-19T00:49:47;18.10;;;14.05;;
28246;SDS011;66191;53.178;22.058;2023-09-19T00:52:27;18.70;;;14.18;;
28246;SDS011;66191;53.178;22.058;2023-09-19T00:55:01;18.13;;;13.57;;
28246;SDS011;66191;53.178;22.058;2023-09-19T00:57:32;18.17;;;13.27;;
28246;SDS011;66191;53.178;22.058;2023-09-19T01:00:09;19.33;;;13.50;;
28246;SDS011;66191;53.178;22.058;2023-09-19T01:02:43;19.73;;;14.27;;
28246;SDS011;66191;53.178;22.058;2023-09-19T01:05:16;18.95;;;14.18;;
28246;SDS011;66191;53.178;22.058;2023-09-19T01:07:53;18.60;;;12.90;;
28246;SDS011;66191;53.178;22.058;2023-09-19T01:10:26;22.95;;;14.13;;
28246;SDS011;66191;53.178;22.058;2023-09-19T01:13:04;21.83;;;13.77;;
28246;SDS011;66191;53.178;22.058;2023-09-19T01:15:44;21.65;;;13.63;;
28246;SDS011;66191;53.178;22.058;2023-09-19T01:18:26;20.80;;;13.45;;
28246;SDS011;66191;53.178;22.058;2023-09-19T01:21:08;19.73;;;14.30;;
28246;SDS011;66191;53.178;22.058;2023-09-19T01:24:04;20.45;;;13.82;;
28246;SDS011;66191;53.178;22.058;2023-09-19T01:27:04;18.90;;;12.88;;
28246;SDS011;66191;53.178;22.058;2023-09-19T01:30:08;21.42;;;13.27;;
28246;SDS011;66191;53.178;22.058;2023-09-19T01:32:40;20.08;;;13.73;;
28246;SDS011;66191;53.178;22.058;2023-09-19T01:35:17;23.20;;;13.02;;
28246;SDS011;66191;53.178;22.058;2023-09-19T01:37:48;18.40;;;13.38;;
28246;SDS011;66191;53.178;22.058;2023-09-19T01:40:27;16.55;;;13.00;;
28246;SDS011;66191;53.178;22.058;2023-09-19T01:43:02;17.98;;;13.98;;
28246;SDS011;66191;53.178;22.058;2023-09-19T01:45:45;19.67;;;13.30;;
28246;SDS011;66191;53.178;22.058;2023-09-19T01:48:38;21.95;;;14.43;;
28246;SDS011;66191;53.178;22.058;2023-09-19T01:51:20;20.33;;;13.57;;
28246;SDS011;66191;53.178;22.058;2023-09-19T01:54:00;26.23;;;16.25;;
28246;SDS011;66191;53.178;22.058;2023-09-19T01:56:34;18.13;;;14.02;;
28246;SDS011;66191;53.178;22.058;2023-09-19T01:59:11;18.75;;;13.40;;
28246;SDS011;66191;53.178;22.058;2023-09-19T02:01:51;19.58;;;13.23;;
28246;SDS011;66191;53.178;22.058;2023-09-19T02:04:45;17.45;;;12.93;;
28246;SDS011;66191;53.178;22.058;2023-09-19T02:07:17;17.83;;;13.25;;
28246;SDS011;66191;53.178;22.058;2023-09-19T02:10:01;21.67;;;14.10;;
28246;SDS011;66191;53.178;22.058;2023-09-19T02:12:33;18.20;;;13.95;;
28246;SDS011;66191;53.178;22.058;2023-09-19T02:15:08;21.05;;;13.90;;
28246;SDS011;66191;53.178;22.058;2023-09-19T02:17:47;19.75;;;13.38;;
28246;SDS011;66191;53.178;22.058;2023-09-19T02:20:19;23.00;;;13.65;;
28246;SDS011;66191;53.178;22.058;2023-09-19T02:22:53;19.77;;;13.82;;
28246;SDS011;66191;53.178;22.058;2023-09-19T02:25:25;19.15;;;13.95;;
28246;SDS011;66191;53.178;22.058;2023-09-19T02:27:58;19.00;;;13.05;;
28246;SDS011;66191;53.178;22.058;2023-09-19T02:30:31;17.95;;;12.20;;
28246;SDS011;66191;53.178;22.058;2023-09-19T02:33:06;20.50;;;13.32;;
28246;SDS011;66191;53.178;22.058;2023-09-19T02:35:39;17.60;;;13.25;;
28246;SDS011;66191;53.178;22.058;2023-09-19T02:38:11;19.73;;;14.40;;
28246;SDS011;66191;53.178;22.058;2023-09-19T02:40:50;20.20;;;13.32;;
28246;SDS011;66191;53.178;22.058;2023-09-19T02:43:26;19.25;;;12.68;;
28246;SDS011;66191;53.178;22.058;2023-09-19T02:46:02;19.83;;;13.20;;
28246;SDS011;66191;53.178;22.058;2023-09-19T02:48:40;21.70;;;14.10;;
28246;SDS011;66191;53.178;22.058;2023-09-19T02:51:12;17.88;;;12.95;;
28246;SDS011;66191;53.178;22.058;2023-09-19T02:53:59;19.88;;;15.05;;
28246;SDS011;66191;53.178;22.058;2023-09-19T02:56:36;19.50;;;13.23;;
28246;SDS011;66191;53.178;22.058;2023-09-19T02:59:13;19.77;;;14.20;;
28246;SDS011;66191;53.178;22.058;2023-09-19T03:02:03;20.85;;;13.52;;
28246;SDS011;66191;53.178;22.058;2023-09-19T03:04:42;18.65;;;13.30;;
28246;SDS011;66191;53.178;22.058;2023-09-19T03:07:21;18.90;;;13.40;;
28246;SDS011;66191;53.178;22.058;2023-09-19T03:09:56;20.52;;;14.43;;
28246;SDS011;66191;53.178;22.058;2023-09-19T03:12:29;20.90;;;13.63;;
28246;SDS011;66191;53.178;22.058;2023-09-19T03:15:03;19.15;;;14.20;;
28246;SDS011;66191;53.178;22.058;2023-09-19T03:17:40;17.77;;;13.48;;
28246;SDS011;66191;53.178;22.058;2023-09-19T03:20:22;23.42;;;14.90;;
28246;SDS011;66191;53.178;22.058;2023-09-19T03:22:55;19.00;;;14.20;;
28246;SDS011;66191;53.178;22.058;2023-09-19T03:25:28;19.02;;;13.38;;
28246;SDS011;66191;53.178;22.058;2023-09-19T03:28:01;19.33;;;13.15;;
28246;SDS011;66191;53.178;22.058;2023-09-19T03:30:33;19.85;;;14.63;;
28246;SDS011;66191;53.178;22.058;2023-09-19T03:33:06;19.25;;;13.77;;
28246;SDS011;66191;53.178;22.058;2023-09-19T03:35:42;22.85;;;13.82;;
28246;SDS011;66191;53.178;22.058;2023-09-19T03:38:23;18.58;;;14.43;;
28246;SDS011;66191;53.178;22.058;2023-09-19T03:41:02;19.38;;;13.77;;
28246;SDS011;66191;53.178;22.058;2023-09-19T03:43:49;19.65;;;13.27;;
28246;SDS011;66191;53.178;22.058;2023-09-19T03:46:21;15.63;;;12.80;;
28246;SDS011;66191;53.178;22.058;2023-09-19T03:48:54;18.70;;;14.00;;
28246;SDS011;66191;53.178;22.058;2023-09-19T03:51:33;18.27;;;12.70;;
28246;SDS011;66191;53.178;22.058;2023-09-19T03:54:05;22.15;;;15.18;;
28246;SDS011;66191;53.178;22.058;2023-09-19T03:56:37;19.55;;;14.68;;
28246;SDS011;66191;53.178;22.058;2023-09-19T03:59:10;26.42;;;14.88;;
28246;SDS011;66191;53.178;22.058;2023-09-19T04:02:00;16.15;;;12.70;;
28246;SDS011;66191;53.178;22.058;2023-09-19T04:04:39;20.70;;;14.40;;
28246;SDS011;66191;53.178;22.058;2023-09-19T04:07:13;19.10;;;13.73;;
28246;SDS011;66191;53.178;22.058;2023-09-19T04:09:49;16.38;;;12.88;;
28246;SDS011;66191;53.178;22.058;2023-09-19T04:12:24;17.55;;;12.95;;
28246;SDS011;66191;53.178;22.058;2023-09-19T04:15:01;18.92;;;12.93;;
28246;SDS011;66191;53.178;22.058;2023-09-19T04:17:33;19.38;;;13.45;;
28246;SDS011;66191;53.178;22.058;2023-09-19T04:20:08;20.02;;;14.32;;
28246;SDS011;66191;53.178;22.058;2023-09-19T04:22:45;22.23;;;13.75;;
28246;SDS011;66191;53.178;22.058;2023-09-19T04:25:17;19.70;;;13.80;;
28246;SDS011;66191;53.178;22.058;2023-09-19T04:27:48;22.75;;;14.68;;
28246;SDS011;66191;53.178;22.058;2023-09-19T04:30:20;18.80;;;13.05;;
28246;SDS011;66191;53.178;22.058;2023-09-19T04:32:55;18.75;;;13.98;;
28246;SDS011;66191;53.178;22.058;2023-09-19T04:35:32;20.30;;;12.82;;
28246;SDS011;66191;53.178;22.058;2023-09-19T04:38:12;21.70;;;14.68;;
28246;SDS011;66191;53.178;22.058;2023-09-19T04:40:43;18.48;;;14.00;;
28246;SDS011;66191;53.178;22.058;2023-09-19T04:43:18;19.08;;;13.68;;
28246;SDS011;66191;53.178;22.058;2023-09-19T04:45:50;17.23;;;13.57;;
28246;SDS011;66191;53.178;22.058;2023-09-19T04:48:23;19.58;;;14.77;;
28246;SDS011;66191;53.178;22.058;2023-09-19T04:50:57;22.10;;;15.05;;
28246;SDS011;66191;53.178;22.058;2023-09-19T04:53:33;19.75;;;14.60;;
28246;SDS011;66191;53.178;22.058;2023-09-19T04:56:05;20.52;;;14.95;;
28246;SDS011;66191;53.178;22.058;2023-09-19T04:58:48;16.92;;;12.98;;
28246;SDS011;66191;53.178;22.058;2023-09-19T05:01:22;23.33;;;15.45;;
28246;SDS011;66191;53.178;22.058;2023-09-19T05:03:54;19.35;;;13.32;;
28246;SDS011;66191;53.178;22.058;2023-09-19T05:06:26;21.73;;;14.10;;
28246;SDS011;66191;53.178;22.058;2023-09-19T05:09:00;22.35;;;14.07;;
28246;SDS011;66191;53.178;22.058;2023-09-19T05:11:33;16.92;;;13.23;;
28246;SDS011;66191;53.178;22.058;2023-09-19T05:14:09;20.60;;;14.25;;
28246;SDS011;66191;53.178;22.058;2023-09-19T05:16:41;24.92;;;14.55;;
28246;SDS011;66191;53.178;22.058;2023-09-19T05:19:21;16.63;;;13.40;;
28246;SDS011;66191;53.178;22.058;2023-09-19T05:22:03;21.33;;;14.45;;
28246;SDS011;66191;53.178;22.058;2023-09-19T05:24:40;34.08;;;22.02;;
28246;SDS011;66191;53.178;22.058;2023-09-19T05:27:13;19.02;;;14.23;;
28246;SDS011;66191;53.178;22.058;2023-09-19T05:29:45;23.55;;;15.35;;
28246;SDS011;66191;53.178;22.058;2023-09-19T05:32:18;21.02;;;13.10;;
28246;SDS011;66191;53.178;22.058;2023-09-19T05:34:53;18.65;;;13.35;;
28246;SDS011;66191;53.178;22.058;2023-09-19T05:37:26;19.05;;;13.50;;
28246;SDS011;66191;53.178;22.058;2023-09-19T05:40:00;20.90;;;12.57;;
28246;SDS011;66191;53.178;22.058;2023-09-19T05:42:36;24.38;;;16.95;;
28246;SDS011;66191;53.178;22.058;2023-09-19T05:45:08;38.85;;;24.58;;
28246;SDS011;66191;53.178;22.058;2023-09-19T05:47:44;18.75;;;14.00;;
28246;SDS011;66191;53.178;22.058;2023-09-19T05:50:17;18.20;;;14.07;;
28246;SDS011;66191;53.178;22.058;2023-09-19T05:52:52;21.88;;;15.43;;
28246;SDS011;66191;53.178;22.058;2023-09-19T05:55:28;32.30;;;14.27;;
28246;SDS011;66191;53.178;22.058;2023-09-19T05:58:00;30.98;;;18.73;;
28246;SDS011;66191;53.178;22.058;2023-09-19T06:00:32;16.83;;;13.05;;
28246;SDS011;66191;53.178;22.058;2023-09-19T06:03:06;19.88;;;13.27;;
28246;SDS011;66191;53.178;22.058;2023-09-19T06:05:41;17.17;;;12.07;;
28246;SDS011;66191;53.178;22.058;2023-09-19T06:08:20;20.40;;;13.57;;
28246;SDS011;66191;53.178;22.058;2023-09-19T06:10:54;18.45;;;12.60;;
28246;SDS011;66191;53.178;22.058;2023-09-19T06:13:28;17.08;;;12.23;;
28246;SDS011;66191;53.178;22.058;2023-09-19T06:16:01;19.58;;;12.98;;
28246;SDS011;66191;53.178;22.058;2023-09-19T06:18:33;18.27;;;12.10;;
28246;SDS011;66191;53.178;22.058;2023-09-19T06:21:06;20.08;;;12.95;;
28246;SDS011;66191;53.178;22.058;2023-09-19T06:23:39;20.05;;;12.68;;
28246;SDS011;66191;53.178;22.058;2023-09-19T06:26:20;19.92;;;13.18;;
28246;SDS011;66191;53.178;22.058;2023-09-19T06:28:59;15.10;;;12.13;;
28246;SDS011;66191;53.178;22.058;2023-09-19T06:31:35;19.45;;;13.63;;
28246;SDS011;66191;53.178;22.058;2023-09-19T06:34:13;15.27;;;12.38;;
28246;SDS011;66191;53.178;22.058;2023-09-19T06:36:53;22.15;;;12.75;;
28246;SDS011;66191;53.178;22.058;2023-09-19T06:39:34;33.40;;;20.27;;
28246;SDS011;66191;53.178;22.058;2023-09-19T06:42:09;25.95;;;15.05;;
28246;SDS011;66191;53.178;22.058;2023-09-19T06:44:55;20.30;;;12.20;;
28246;SDS011;66191;53.178;22.058;2023-09-19T06:47:33;19.63;;;13.07;;
28246;SDS011;66191;53.178;22.058;2023-09-19T06:50:07;22.02;;;12.70;;
28246;SDS011;66191;53.178;22.058;2023-09-19T06:52:44;15.52;;;11.38;;
28246;SDS011;66191;53.178;22.058;2023-09-19T06:55:18;18.90;;;12.10;;
28246;SDS011;66191;53.178;22.058;2023-09-19T06:58:00;18.15;;;12.60;;
28246;SDS011;66191;53.178;22.058;2023-09-19T07:00:35;22.60;;;16.48;;
28246;SDS011;66191;53.178;22.058;2023-09-19T07:03:09;21.48;;;12.95;;
28246;SDS011;66191;53.178;22.058;2023-09-19T07:05:42;19.50;;;12.60;;
28246;SDS011;66191;53.178;22.058;2023-09-19T07:08:13;23.63;;;12.98;;
28246;SDS011;66191;53.178;22.058;2023-09-19T07:10:47;17.40;;;12.05;;
28246;SDS011;66191;53.178;22.058;2023-09-19T07:13:23;21.65;;;11.68;;
28246;SDS011;66191;53.178;22.058;2023-09-19T07:15:58;15.80;;;11.55;;
28246;SDS011;66191;53.178;22.058;2023-09-19T07:18:30;20.70;;;13.52;;
28246;SDS011;66191;53.178;22.058;2023-09-19T07:21:03;19.15;;;11.80;;
28246;SDS011;66191;53.178;22.058;2023-09-19T07:23:35;18.05;;;10.73;;
28246;SDS011;66191;53.178;22.058;2023-09-19T07:26:07;19.35;;;12.05;;
28246;SDS011;66191;53.178;22.058;2023-09-19T07:28:50;16.13;;;11.25;;
28246;SDS011;66191;53.178;22.058;2023-09-19T07:31:26;19.58;;;10.93;;
28246;SDS011;66191;53.178;22.058;2023-09-19T07:33:58;15.90;;;11.02;;
28246;SDS011;66191;53.178;22.058;2023-09-19T07:36:31;15.70;;;11.15;;
28246;SDS011;66191;53.178;22.058;2023-09-19T07:39:08;16.75;;;10.95;;
28246;SDS011;66191;53.178;22.058;2023-09-19T07:41:49;16.73;;;11.10;;
28246;SDS011;66191;53.178;22.058;2023-09-19T07:44:32;17.70;;;11.07;;
28246;SDS011;66191;53.178;22.058;2023-09-19T07:47:05;17.92;;;11.82;;
28246;SDS011;66191;53.178;22.058;2023-09-19T07:49:40;13.55;;;9.75;;
28246;SDS011;66191;53.178;22.058;2023-09-19T07:52:17;15.30;;;10.07;;
28246;SDS011;66191;53.178;22.058;2023-09-19T07:54:56;12.07;;;10.30;;
28246;SDS011;66191;53.178;22.058;2023-09-19T07:57:31;17.65;;;11.30;;
28246;SDS011;66191;53.178;22.058;2023-09-19T08:00:07;18.48;;;10.80;;
28246;SDS011;66191;53.178;22.058;2023-09-19T08:02:40;17.05;;;11.38;;
28246;SDS011;66191;53.178;22.058;2023-09-19T08:05:35;17.83;;;11.65;;
28246;SDS011;66191;53.178;22.058;2023-09-19T08:08:09;22.88;;;11.70;;
28246;SDS011;66191;53.178;22.058;2023-09-19T08:10:41;17.08;;;11.02;;
28246;SDS011;66191;53.178;22.058;2023-09-19T08:13:25;15.57;;;11.20;;
28246;SDS011;66191;53.178;22.058;2023-09-19T08:16:01;21.98;;;12.55;;
28246;SDS011;66191;53.178;22.058;2023-09-19T08:18:34;18.90;;;12.40;;
28246;SDS011;66191;53.178;22.058;2023-09-19T08:21:16;16.38;;;11.90;;
28246;SDS011;66191;53.178;22.058;2023-09-19T08:23:55;17.55;;;10.98;;
28246;SDS011;66191;53.178;22.058;2023-09-19T08:26:33;19.48;;;11.68;;
28246;SDS011;66191;53.178;22.058;2023-09-19T08:29:05;15.23;;;11.38;;
28246;SDS011;66191;53.178;22.058;2023-09-19T08:31:46;22.60;;;12.55;;
28246;SDS011;66191;53.178;22.058;2023-09-19T08:34:18;19.65;;;11.63;;
28246;SDS011;66191;53.178;22.058;2023-09-19T08:36:50;22.92;;;12.18;;
28246;SDS011;66191;53.178;22.058;2023-09-19T08:39:23;20.30;;;12.27;;
28246;SDS011;66191;53.178;22.058;2023-09-19T08:42:04;18.95;;;11.63;;
28246;SDS011;66191;53.178;22.058;2023-09-19T08:44:41;17.92;;;12.95;;
28246;SDS011;66191;53.178;22.058;2023-09-19T08:47:16;16.98;;;12.07;;
28246;SDS011;66191;53.178;22.058;2023-09-19T08:52:43;21.02;;;11.45;;
28246;SDS011;66191;53.178;22.058;2023-09-19T08:55:20;19.92;;;11.82;;
28246;SDS011;66191;53.178;22.058;2023-09-19T08:57:58;17.75;;;11.43;;
28246;SDS011;66191;53.178;22.058;2023-09-19T09:00:34;15.07;;;11.00;;
28246;SDS011;66191;53.178;22.058;2023-09-19T09:03:15;22.27;;;11.65;;
28246;SDS011;66191;53.178;22.058;2023-09-19T09:05:49;18.17;;;11.70;;
28246;SDS011;66191;53.178;22.058;2023-09-19T09:08:24;16.13;;;12.18;;
28246;SDS011;66191;53.178;22.058;2023-09-19T09:11:31;15.43;;;11.52;;
28246;SDS011;66191;53.178;22.058;2023-09-19T09:15:32;19.50;;;12.20;;
28246;SDS011;66191;53.178;22.058;2023-09-19T09:18:08;21.10;;;12.55;;
28246;SDS011;66191;53.178;22.058;2023-09-19T09:20:47;15.77;;;12.07;;
28246;SDS011;66191;53.178;22.058;2023-09-19T09:23:23;17.15;;;12.98;;
28246;SDS011;66191;53.178;22.058;2023-09-19T09:25:58;19.85;;;11.55;;
28246;SDS011;66191;53.178;22.058;2023-09-19T09:28:31;17.73;;;12.50;;
28246;SDS011;66191;53.178;22.058;2023-09-19T09:31:07;17.05;;;13.30;;
28246;SDS011;66191;53.178;22.058;2023-09-19T09:34:08;18.52;;;12.13;;
28246;SDS011;66191;53.178;22.058;2023-09-19T09:36:48;18.60;;;12.52;;
28246;SDS011;66191;53.178;22.058;2023-09-19T09:39:29;16.77;;;13.02;;
28246;SDS011;66191;53.178;22.058;2023-09-19T09:42:08;21.33;;;13.15;;
28246;SDS011;66191;53.178;22.058;2023-09-19T09:45:12;16.85;;;11.75;;
28246;SDS011;66191;53.178;22.058;2023-09-19T09:48:01;17.35;;;11.52;;
28246;SDS011;66191;53.178;22.058;2023-09-19T09:50:50;21.38;;;11.98;;
28246;SDS011;66191;53.178;22.058;2023-09-19T09:53:27;19.90;;;12.40;;
28246;SDS011;66191;53.178;22.058;2023-09-19T09:56:01;23.60;;;13.38;;
28246;SDS011;66191;53.178;22.058;2023-09-19T09:58:49;17.90;;;11.93;;
28246;SDS011;66191;53.178;22.058;2023-09-19T10:01:25;19.38;;;13.77;;
28246;SDS011;66191;53.178;22.058;2023-09-19T10:04:02;20.02;;;12.95;;
28246;SDS011;66191;53.178;22.058;2023-09-19T10:06:40;17.50;;;13.20;;
28246;SDS011;66191;53.178;22.058;2023-09-19T10:09:30;21.05;;;12.55;;
28246;SDS011;66191;53.178;22.058;2023-09-19T10:12:18;18.48;;;13.80;;
28246;SDS011;66191;53.178;22.058;2023-09-19T10:15:03;19.70;;;14.80;;
28246;SDS011;66191;53.178;22.058;2023-09-19T10:17:45;19.98;;;14.02;;
28246;SDS011;66191;53.178;22.058;2023-09-19T10:20:19;20.00;;;14.27;;
28246;SDS011;66191;53.178;22.058;2023-09-19T10:23:08;24.35;;;14.32;;
28246;SDS011;66191;53.178;22.058;2023-09-19T10:25:55;19.25;;;14.80;;
28246;SDS011;66191;53.178;22.058;2023-09-19T10:28:29;18.83;;;13.63;;
28246;SDS011;66191;53.178;22.058;2023-09-19T10:31:03;17.85;;;14.35;;
28246;SDS011;66191;53.178;22.058;2023-09-19T10:33:42;18.25;;;13.35;;
28246;SDS011;66191;53.178;22.058;2023-09-19T10:36:17;30.05;;;14.45;;
28246;SDS011;66191;53.178;22.058;2023-09-19T10:38:49;23.75;;;14.95;;
28246;SDS011;66191;53.178;22.058;2023-09-19T10:41:31;21.40;;;15.63;;
28246;SDS011;66191;53.178;22.058;2023-09-19T10:44:06;19.30;;;15.52;;
28246;SDS011;66191;53.178;22.058;2023-09-19T10:46:40;24.25;;;16.63;;
28246;SDS011;66191;53.178;22.058;2023-09-19T10:49:12;28.48;;;17.20;;
28246;SDS011;66191;53.178;22.058;2023-09-19T10:51:44;27.85;;;17.65;;
28246;SDS011;66191;53.178;22.058;2023-09-19T10:54:18;22.65;;;16.75;;
28246;SDS011;66191;53.178;22.058;2023-09-19T10:57:04;29.50;;;20.05;;
28246;SDS011;66191;53.178;22.058;2023-09-19T10:59:37;36.17;;;21.27;;
28246;SDS011;66191;53.178;22.058;2023-09-19T11:06:11;28.55;;;23.65;;
28246;SDS011;66191;53.178;22.058;2023-09-19T11:08:59;31.60;;;24.13;;
28246;SDS011;66191;53.178;22.058;2023-09-19T11:11:52;32.45;;;23.38;;
28246;SDS011;66191;53.178;22.058;2023-09-19T11:14:41;32.60;;;24.48;;
28246;SDS011;66191;53.178;22.058;2023-09-19T11:20:20;30.50;;;22.10;;
28246;SDS011;66191;53.178;22.058;2023-09-19T11:23:17;24.08;;;19.40;;
28246;SDS011;66191;53.178;22.058;2023-09-19T11:25:51;26.08;;;19.15;;
28246;SDS011;66191;53.178;22.058;2023-09-19T11:28:28;28.73;;;20.10;;
28246;SDS011;66191;53.178;22.058;2023-09-19T11:40:38;21.58;;;16.75;;
28246;SDS011;66191;53.178;22.058;2023-09-19T11:43:28;23.83;;;17.85;;
28246;SDS011;66191;53.178;22.058;2023-09-19T11:46:19;21.40;;;17.85;;
28246;SDS011;66191;53.178;22.058;2023-09-19T11:49:04;22.80;;;18.65;;
28246;SDS011;66191;53.178;22.058;2023-09-19T11:51:44;27.92;;;20.48;;
28246;SDS011;66191;53.178;22.058;2023-09-19T11:54:18;29.92;;;21.98;;
28246;SDS011;66191;53.178;22.058;2023-09-19T11:56:59;25.73;;;19.70;;
28246;SDS011;66191;53.178;22.058;2023-09-19T11:59:37;35.08;;;22.40;;
28246;SDS011;66191;53.178;22.058;2023-09-19T12:02:09;23.48;;;18.80;;
28246;SDS011;66191;53.178;22.058;2023-09-19T12:04:56;25.90;;;20.17;;
28246;SDS011;66191;53.178;22.058;2023-09-19T12:07:28;22.98;;;19.00;;
28246;SDS011;66191;53.178;22.058;2023-09-19T12:10:04;29.98;;;21.55;;
28246;SDS011;66191;53.178;22.058;2023-09-19T12:12:50;31.33;;;22.30;;
28246;SDS011;66191;53.178;22.058;2023-09-19T12:15:30;29.10;;;20.48;;
28246;SDS011;66191;53.178;22.058;2023-09-19T12:18:29;24.85;;;20.13;;
28246;SDS011;66191;53.178;22.058;2023-09-19T12:21:22;30.92;;;21.38;;
28246;SDS011;66191;53.178;22.058;2023-09-19T12:24:05;29.10;;;19.60;;
28246;SDS011;66191;53.178;22.058;2023-09-19T12:26:44;31.10;;;22.73;;
28246;SDS011;66191;53.178;22.058;2023-09-19T12:29:41;23.35;;;17.83;;
28246;SDS011;66191;53.178;22.058;2023-09-19T12:32:17;27.35;;;19.92;;
28246;SDS011;66191;53.178;22.058;2023-09-19T12:35:05;24.48;;;19.25;;
28246;SDS011;66191;53.178;22.058;2023-09-19T12:37:51;26.30;;;19.85;;
28246;SDS011;66191;53.178;22.058;2023-09-19T12:40:26;24.98;;;20.05;;
28246;SDS011;66191;53.178;22.058;2023-09-19T12:43:02;25.92;;;20.52;;
28246;SDS011;66191;53.178;22.058;2023-09-19T12:45:42;22.05;;;18.05;;
28246;SDS011;66191;53.178;22.058;2023-09-19T12:48:20;25.92;;;19.15;;
28246;SDS011;66191;53.178;22.058;2023-09-19T12:51:04;24.95;;;19.23;;
28246;SDS011;66191;53.178;22.058;2023-09-19T12:53:42;27.27;;;18.38;;
28246;SDS011;66191;53.178;22.058;2023-09-19T12:56:21;23.02;;;17.85;;
28246;SDS011;66191;53.178;22.058;2023-09-19T12:58:56;28.90;;;20.83;;
28246;SDS011;66191;53.178;22.058;2023-09-19T13:01:36;29.63;;;21.33;;
28246;SDS011;66191;53.178;22.058;2023-09-19T13:04:14;26.35;;;19.92;;
28246;SDS011;66191;53.178;22.058;2023-09-19T13:06:54;26.10;;;18.92;;
28246;SDS011;66191;53.178;22.058;2023-09-19T13:09:29;25.20;;;18.35;;
28246;SDS011;66191;53.178;22.058;2023-09-19T13:12:03;27.08;;;21.02;;
28246;SDS011;66191;53.178;22.058;2023-09-19T13:14:38;21.80;;;17.55;;
28246;SDS011;66191;53.178;22.058;2023-09-19T13:17:19;21.52;;;17.40;;
28246;SDS011;66191;53.178;22.058;2023-09-19T13:19:58;21.20;;;15.38;;
28246;SDS011;66191;53.178;22.058;2023-09-19T13:22:38;20.95;;;15.75;;
28246;SDS011;66191;53.178;22.058;2023-09-19T13:25:13;17.95;;;14.18;;
28246;SDS011;66191;53.178;22.058;2023-09-19T13:27:46;17.92;;;13.75;;
28246;SDS011;66191;53.178;22.058;2023-09-19T13:30:31;20.52;;;15.23;;
28246;SDS011;66191;53.178;22.058;2023-09-19T13:33:09;25.05;;;18.77;;
28246;SDS011;66191;53.178;22.058;2023-09-19T13:35:49;25.67;;;20.75;;
28246;SDS011;66191;53.178;22.058;2023-09-19T13:38:27;30.20;;;23.40;;
28246;SDS011;66191;53.178;22.058;2023-09-19T13:41:02;36.67;;;26.27;;
28246;SDS011;66191;53.178;22.058;2023-09-19T13:43:38;36.42;;;27.60;;
28246;SDS011;66191;53.178;22.058;2023-09-19T13:46:18;31.88;;;24.77;;
28246;SDS011;66191;53.178;22.058;2023-09-19T13:49:01;33.72;;;26.08;;
28246;SDS011;66191;53.178;22.058;2023-09-19T13:51:39;34.67;;;27.67;;
28246;SDS011;66191;53.178;22.058;2023-09-19T13:54:12;34.13;;;26.10;;
28246;SDS011;66191;53.178;22.058;2023-09-19T13:56:45;32.08;;;25.38;;
28246;SDS011;66191;53.178;22.058;2023-09-19T13:59:19;31.48;;;23.95;;
28246;SDS011;66191;53.178;22.058;2023-09-19T14:01:55;34.15;;;26.75;;
28246;SDS011;66191;53.178;22.058;2023-09-19T14:04:31;27.08;;;20.85;;
28246;SDS011;66191;53.178;22.058;2023-09-19T14:07:06;24.25;;;19.15;;
28246;SDS011;66191;53.178;22.058;2023-09-19T14:09:42;21.00;;;16.15;;
28246;SDS011;66191;53.178;22.058;2023-09-19T14:12:14;20.25;;;15.07;;
28246;SDS011;66191;53.178;22.058;2023-09-19T14:14:46;17.98;;;15.07;;
28246;SDS011;66191;53.178;22.058;2023-09-19T14:17:19;17.52;;;14.18;;
28246;SDS011;66191;53.178;22.058;2023-09-19T14:19:54;20.60;;;15.20;;
28246;SDS011;66191;53.178;22.058;2023-09-19T14:22:27;16.38;;;12.98;;
28246;SDS011;66191;53.178;22.058;2023-09-19T14:24:59;16.85;;;12.02;;
28246;SDS011;66191;53.178;22.058;2023-09-19T14:27:38;19.10;;;13.85;;
28246;SDS011;66191;53.178;22.058;2023-09-19T14:30:12;15.50;;;12.75;;
28246;SDS011;66191;53.178;22.058;2023-09-19T14:32:44;16.00;;;13.75;;
28246;SDS011;66191;53.178;22.058;2023-09-19T14:35:25;18.27;;;13.80;;
28246;SDS011;66191;53.178;22.058;2023-09-19T14:40:59;18.17;;;14.63;;
28246;SDS011;66191;53.178;22.058;2023-09-19T14:43:37;18.80;;;14.80;;
28246;SDS011;66191;53.178;22.058;2023-09-19T14:46:09;22.02;;;17.85;;
28246;SDS011;66191;53.178;22.058;2023-09-19T14:48:49;20.45;;;16.40;;
28246;SDS011;66191;53.178;22.058;2023-09-19T14:51:24;37.55;;;19.65;;
28246;SDS011;66191;53.178;22.058;2023-09-19T14:53:59;26.10;;;19.05;;
28246;SDS011;66191;53.178;22.058;2023-09-19T14:56:31;24.10;;;17.13;;
28246;SDS011;66191;53.178;22.058;2023-09-19T14:59:03;22.52;;;18.00;;
28246;SDS011;66191;53.178;22.058;2023-09-19T15:01:35;21.13;;;16.08;;
28246;SDS011;66191;53.178;22.058;2023-09-19T15:04:13;24.05;;;18.02;;
28246;SDS011;66191;53.178;22.058;2023-09-19T15:06:48;21.05;;;16.38;;
28246;SDS011;66191;53.178;22.058;2023-09-19T15:09:23;25.63;;;17.85;;
28246;SDS011;66191;53.178;22.058;2023-09-19T15:11:57;21.83;;;15.70;;
28246;SDS011;66191;53.178;22.058;2023-09-19T15:14:28;21.10;;;15.18;;
28246;SDS011;66191;53.178;22.058;2023-09-19T15:17:01;23.70;;;16.92;;
28246;SDS011;66191;53.178;22.058;2023-09-19T15:19:39;20.50;;;14.80;;
28246;SDS011;66191;53.178;22.058;2023-09-19T15:22:13;19.85;;;16.40;;
28246;SDS011;66191;53.178;22.058;2023-09-19T15:24:46;21.80;;;17.65;;
28246;SDS011;66191;53.178;22.058;2023-09-19T15:27:21;22.83;;;18.42;;
28246;SDS011;66191;53.178;22.058;2023-09-19T15:29:56;24.60;;;19.35;;